createdAt,value
2019-03-30T00:01:06.190Z,10.67
2019-03-30T00:03:32.723Z,11.47
2019-03-30T00:05:59.137Z,10.47
2019-03-30T00:08:25.597Z,10.37
2019-03-30T00:10:52.200Z,10.37
2019-03-30T00:13:18.721Z,9.43
2019-03-30T00:15:45.143Z,9.70
2019-03-30T00:18:11.752Z,13.40
2019-03-30T00:20:38.097Z,79.03
2019-03-30T00:23:04.653Z,26.37
2019-03-30T00:25:32.981Z,12.30
2019-03-30T00:27:59.428Z,9.93
2019-03-30T00:30:25.877Z,9.17
2019-03-30T00:32:52.367Z,11.13
2019-03-30T00:35:18.808Z,11.27
2019-03-30T00:37:45.205Z,12.63
2019-03-30T00:40:11.759Z,13.97
2019-03-30T00:42:38.302Z,11.03
2019-03-30T00:45:06.358Z,10.47
2019-03-30T00:47:32.830Z,11.33
2019-03-30T00:49:59.247Z,10.93
2019-03-30T00:52:25.632Z,10.37
2019-03-30T00:54:52.027Z,11.23
2019-03-30T00:57:18.557Z,10.60
2019-03-30T00:59:44.867Z,9.70
2019-03-30T01:02:11.314Z,11.13
2019-03-30T01:04:37.703Z,10.47
2019-03-30T01:07:04.223Z,12.37
2019-03-30T01:09:30.734Z,11.07
2019-03-30T01:11:57.231Z,10.90
2019-03-30T01:14:23.759Z,9.97
2019-03-30T01:16:50.291Z,10.27
2019-03-30T01:19:16.746Z,9.87
2019-03-30T01:21:43.168Z,10.73
2019-03-30T01:24:09.702Z,10.73
2019-03-30T01:26:36.100Z,10.57
2019-03-30T01:29:02.792Z,10.10
2019-03-30T01:31:29.414Z,11.00
2019-03-30T01:33:55.953Z,9.77
2019-03-30T01:36:22.326Z,10.27
2019-03-30T01:38:48.849Z,9.80
2019-03-30T01:41:15.305Z,9.10
2019-03-30T01:43:41.632Z,9.70
2019-03-30T01:46:08.147Z,9.07
2019-03-30T01:48:34.678Z,9.33
2019-03-30T01:51:01.067Z,9.03
2019-03-30T01:53:27.516Z,9.07
2019-03-30T01:55:53.930Z,9.10
2019-03-30T01:58:20.557Z,8.20
2019-03-30T02:00:46.976Z,8.30
2019-03-30T02:03:13.491Z,8.97
2019-03-30T02:05:39.875Z,9.50
2019-03-30T02:08:06.292Z,9.43
2019-03-30T02:10:42.976Z,9.70
2019-03-30T02:13:09.911Z,9.10
2019-03-30T02:15:36.611Z,8.83
2019-03-30T02:18:03.236Z,8.47
2019-03-30T02:20:39.989Z,8.37
2019-03-30T02:23:06.643Z,8.67
2019-03-30T02:25:33.136Z,9.50
2019-03-30T02:27:59.637Z,9.03
2019-03-30T02:30:25.946Z,9.00
2019-03-30T02:32:52.403Z,8.50
2019-03-30T02:35:19.054Z,8.67
2019-03-30T02:37:45.326Z,8.53
2019-03-30T02:40:11.832Z,8.77
2019-03-30T02:42:38.259Z,8.60
2019-03-30T02:45:05.506Z,8.80
2019-03-30T02:47:32.108Z,8.77
2019-03-30T02:49:58.438Z,8.33
2019-03-30T02:52:24.713Z,8.27
2019-03-30T02:54:51.242Z,8.50
2019-03-30T02:57:17.632Z,8.93
2019-03-30T02:59:44.154Z,9.40
2019-03-30T03:02:10.494Z,8.97
2019-03-30T03:04:37.351Z,8.40
2019-03-30T03:07:03.866Z,8.60
2019-03-30T03:09:30.411Z,9.10
2019-03-30T03:11:56.909Z,8.27
2019-03-30T03:14:23.591Z,7.63
2019-03-30T03:16:50.017Z,8.40
2019-03-30T03:19:16.446Z,9.03
2019-03-30T03:21:42.963Z,9.83
2019-03-30T03:24:09.296Z,8.77
2019-03-30T03:26:41.909Z,9.07
2019-03-30T03:29:08.221Z,8.10
2019-03-30T03:31:34.706Z,8.93
2019-03-30T03:34:01.363Z,8.87
2019-03-30T03:36:27.769Z,9.07
2019-03-30T03:38:54.069Z,10.23
2019-03-30T03:41:20.500Z,9.77
2019-03-30T03:43:46.963Z,9.53
2019-03-30T03:46:13.385Z,10.00
2019-03-30T03:48:39.885Z,9.33
2019-03-30T03:51:24.568Z,9.80
2019-03-30T03:53:35.649Z,9.57
2019-03-30T03:56:04.049Z,10.00
2019-03-30T03:58:33.240Z,9.90
2019-03-30T04:01:01.082Z,10.07
2019-03-30T04:03:31.478Z,9.57
2019-03-30T04:05:58.765Z,9.23
2019-03-30T04:08:27.455Z,9.83
2019-03-30T04:10:56.156Z,10.10
2019-03-30T04:13:27.028Z,8.33
2019-03-30T04:16:03.415Z,7.73
2019-03-30T04:18:29.960Z,9.57
2019-03-30T04:20:56.406Z,8.80
2019-03-30T04:23:22.827Z,9.40
2019-03-30T04:25:49.368Z,8.90
2019-03-30T04:28:15.718Z,8.93
2019-03-30T04:30:42.411Z,8.40
2019-03-30T04:33:09.024Z,8.90
2019-03-30T04:35:35.302Z,8.17
2019-03-30T04:38:01.592Z,8.43
2019-03-30T04:40:27.986Z,8.10
2019-03-30T04:42:54.306Z,8.27
2019-03-30T04:45:20.692Z,9.27
2019-03-30T04:47:47.019Z,9.37
2019-03-30T04:50:13.688Z,9.13
2019-03-30T04:52:40.021Z,8.47
2019-03-30T04:55:06.704Z,9.20
2019-03-30T04:57:32.999Z,8.60
2019-03-30T04:59:59.333Z,9.00
2019-03-30T05:02:25.837Z,8.78
2019-03-30T05:04:52.158Z,8.40
2019-03-30T05:07:18.437Z,9.50
2019-03-30T05:09:44.959Z,9.27
2019-03-30T05:12:11.740Z,8.67
2019-03-30T05:14:38.168Z,8.80
2019-03-30T05:17:04.663Z,8.40
2019-03-30T05:19:30.973Z,8.60
2019-03-30T05:22:11.135Z,8.93
2019-03-30T05:24:25.594Z,8.57
2019-03-30T05:26:52.036Z,9.40
2019-03-30T05:29:18.469Z,8.80
2019-03-30T05:31:44.861Z,8.77
2019-03-30T05:34:11.198Z,8.90
2019-03-30T05:36:37.487Z,8.97
2019-03-30T05:39:04.613Z,8.30
2019-03-30T05:41:31.023Z,8.53
2019-03-30T05:43:57.542Z,9.10
2019-03-30T05:46:23.933Z,8.47
2019-03-30T05:48:50.525Z,8.60
2019-03-30T05:51:16.908Z,9.17
2019-03-30T05:53:43.232Z,8.60
2019-03-30T05:56:09.632Z,8.20
2019-03-30T05:58:35.941Z,8.43
2019-03-30T06:01:12.192Z,9.17
2019-03-30T06:03:38.586Z,9.33
2019-03-30T06:06:05.008Z,9.30
2019-03-30T06:08:31.432Z,9.20
2019-03-30T06:10:58.008Z,8.60
2019-03-30T06:13:24.497Z,9.50
2019-03-30T06:15:50.949Z,9.00
2019-03-30T06:18:17.307Z,9.23
2019-03-30T06:20:43.820Z,9.03
2019-03-30T06:23:10.317Z,9.77
2019-03-30T06:25:36.737Z,8.67
2019-03-30T06:28:03.319Z,9.13
2019-03-30T06:30:30.042Z,9.70
2019-03-30T06:32:56.467Z,9.53
2019-03-30T06:35:23.272Z,8.20
2019-03-30T06:37:49.748Z,9.10
2019-03-30T06:40:16.242Z,9.40
2019-03-30T06:42:42.969Z,9.30
2019-03-30T06:45:10.484Z,9.13
2019-03-30T06:47:37.142Z,10.13
2019-03-30T06:50:06.458Z,9.40
2019-03-30T06:52:33.419Z,9.47
2019-03-30T06:54:59.813Z,9.60
2019-03-30T06:57:26.244Z,9.67
2019-03-30T06:59:52.738Z,9.97
2019-03-30T07:02:20.966Z,10.70
2019-03-30T07:04:48.056Z,9.80
2019-03-30T07:07:15.577Z,10.70
2019-03-30T07:09:45.613Z,11.60
2019-03-30T07:12:13.143Z,10.87
2019-03-30T07:14:42.648Z,10.53
2019-03-30T07:17:11.113Z,10.57
2019-03-30T07:19:43.092Z,15.47
2019-03-30T07:22:09.434Z,14.03
2019-03-30T07:24:35.942Z,14.57
2019-03-30T07:27:02.744Z,12.33
2019-03-30T07:29:29.303Z,12.50
2019-03-30T07:31:55.920Z,11.20
2019-03-30T07:34:22.263Z,12.80
2019-03-30T07:36:48.733Z,11.93
2019-03-30T07:39:15.082Z,13.23
2019-03-30T07:41:41.572Z,12.57
2019-03-30T07:44:08.264Z,12.40
2019-03-30T07:46:34.784Z,13.20
2019-03-30T07:49:01.465Z,13.20
2019-03-30T07:51:27.884Z,12.93
2019-03-30T07:53:54.506Z,12.30
2019-03-30T07:56:21.107Z,11.33
2019-03-30T07:58:47.704Z,11.10
2019-03-30T08:01:14.287Z,12.23
2019-03-30T08:03:40.980Z,11.03
2019-03-30T08:06:07.512Z,10.70
2019-03-30T08:08:33.793Z,11.60
2019-03-30T08:11:00.268Z,11.50
2019-03-30T08:13:26.872Z,11.37
2019-03-30T08:15:53.303Z,10.87
2019-03-30T08:18:19.843Z,10.17
2019-03-30T08:20:46.383Z,11.47
2019-03-30T08:23:12.984Z,10.37
2019-03-30T08:25:39.742Z,10.77
2019-03-30T08:28:06.199Z,10.67
2019-03-30T08:30:32.740Z,11.03
2019-03-30T08:32:59.357Z,10.90
2019-03-30T08:35:25.898Z,10.50
2019-03-30T08:37:52.333Z,10.37
2019-03-30T08:40:18.659Z,11.47
2019-03-30T08:42:45.007Z,11.17
2019-03-30T08:45:13.277Z,7.73
2019-03-30T08:47:39.767Z,9.13
2019-03-30T08:50:07.101Z,8.93
2019-03-30T08:52:33.503Z,7.70
2019-03-30T08:54:59.817Z,9.80
2019-03-30T08:57:26.341Z,8.40
2019-03-30T08:59:52.870Z,8.10
2019-03-30T09:02:19.390Z,9.87
2019-03-30T09:04:46.191Z,9.00
2019-03-30T09:07:12.930Z,8.93
2019-03-30T09:09:39.574Z,8.17
2019-03-30T09:12:06.299Z,9.13
2019-03-30T09:14:32.718Z,8.90
2019-03-30T09:16:59.257Z,8.33
2019-03-30T09:19:25.956Z,8.20
2019-03-30T09:44:59.754Z,7.53
2019-03-30T09:47:26.475Z,7.07
2019-03-30T09:49:52.963Z,7.13
2019-03-30T09:52:19.659Z,6.30
2019-03-30T09:54:46.430Z,7.23
2019-03-30T09:57:13.120Z,6.80
2019-03-30T09:59:39.658Z,6.40
2019-03-30T10:02:06.139Z,7.43
2019-03-30T10:04:32.631Z,6.47
2019-03-30T10:06:59.284Z,6.97
2019-03-30T10:09:25.887Z,7.97
2019-03-30T10:11:52.461Z,6.80
2019-03-30T10:14:19.100Z,7.50
2019-03-30T10:16:48.670Z,8.17
2019-03-30T10:19:14.078Z,7.40
2019-03-30T10:21:40.613Z,7.97
2019-03-30T10:24:07.396Z,8.20
2019-03-30T10:26:33.935Z,8.93
2019-03-30T10:29:00.483Z,8.03
2019-03-30T10:31:26.927Z,7.30
2019-03-30T10:33:53.485Z,10.53
2019-03-30T10:36:19.883Z,9.83
2019-03-30T10:38:46.688Z,10.13
2019-03-30T10:41:13.104Z,10.47
2019-03-30T10:43:39.561Z,8.93
2019-03-30T10:46:08.043Z,9.33
2019-03-30T10:48:34.579Z,10.37
2019-03-30T10:51:01.114Z,11.20
2019-03-30T10:53:27.742Z,9.23
2019-03-30T10:55:54.334Z,9.87
2019-03-30T10:58:20.850Z,12.10
2019-03-30T11:00:47.491Z,10.60
2019-03-30T11:03:14.256Z,11.47
2019-03-30T11:05:40.973Z,12.00
2019-03-30T11:08:07.572Z,10.77
2019-03-30T11:10:34.044Z,11.03
2019-03-30T11:13:00.703Z,12.37
2019-03-30T11:15:27.291Z,11.67
2019-03-30T11:17:53.789Z,11.80
2019-03-30T11:20:20.295Z,10.70
2019-03-30T11:22:46.790Z,11.27
2019-03-30T11:25:13.456Z,10.93
2019-03-30T11:27:39.892Z,11.33
2019-03-30T11:30:06.708Z,10.77
2019-03-30T11:32:33.300Z,10.37
2019-03-30T11:34:59.909Z,10.57
2019-03-30T11:37:26.451Z,10.27
2019-03-30T11:39:53.129Z,9.80
2019-03-30T11:42:19.744Z,10.03
2019-03-30T11:44:46.422Z,11.00
2019-03-30T11:47:13.158Z,10.43
2019-03-30T11:49:39.554Z,10.13
2019-03-30T11:52:06.134Z,9.80
2019-03-30T11:54:32.547Z,8.97
2019-03-30T11:56:59.153Z,9.67
2019-03-30T11:59:25.803Z,9.23
2019-03-30T12:01:52.476Z,9.27
2019-03-30T12:04:19.009Z,8.63
2019-03-30T12:06:47.364Z,8.60
2019-03-30T12:09:14.152Z,8.50
2019-03-30T12:11:40.793Z,9.60
2019-03-30T12:14:07.226Z,11.77
2019-03-30T12:16:33.687Z,8.53
2019-03-30T12:19:00.108Z,8.93
2019-03-30T12:21:26.798Z,8.30
2019-03-30T12:23:53.470Z,9.40
2019-03-30T12:26:19.802Z,9.17
2019-03-30T12:28:46.164Z,8.93
2019-03-30T12:31:12.637Z,8.73
2019-03-30T12:33:39.314Z,8.93
2019-03-30T12:36:05.839Z,8.27
2019-03-30T12:38:32.480Z,8.70
2019-03-30T12:40:58.986Z,9.13
2019-03-30T12:43:25.549Z,9.13
2019-03-30T12:45:52.280Z,8.67
2019-03-30T12:48:19.347Z,8.40
2019-03-30T12:50:45.870Z,8.47
2019-03-30T12:53:12.530Z,8.50
2019-03-30T12:55:49.075Z,12.43
2019-03-30T12:58:07.865Z,9.33
2019-03-30T13:00:34.495Z,8.90
2019-03-30T13:03:01.103Z,8.43
2019-03-30T13:05:27.578Z,8.50
2019-03-30T13:07:54.214Z,8.73
2019-03-30T13:10:20.863Z,7.60
2019-03-30T13:12:47.403Z,7.90
2019-03-30T13:15:14.126Z,8.33
2019-03-30T13:17:40.892Z,9.07
2019-03-30T13:20:08.134Z,8.27
2019-03-30T13:22:34.565Z,8.33
2019-03-30T13:25:01.161Z,8.43
2019-03-30T13:27:27.555Z,8.63
2019-03-30T13:29:53.898Z,8.70
2019-03-30T13:32:20.435Z,7.80
2019-03-30T13:34:46.912Z,7.80
2019-03-30T13:37:18.086Z,8.37
2019-03-30T13:39:44.871Z,8.33
2019-03-30T13:42:11.886Z,7.37
2019-03-30T13:44:38.350Z,7.13
2019-03-30T13:47:04.894Z,6.83
2019-03-30T13:49:31.259Z,6.67
2019-03-30T13:51:57.663Z,7.00
2019-03-30T13:54:24.259Z,7.90
2019-03-30T13:56:50.740Z,7.17
2019-03-30T13:59:17.127Z,7.30
2019-03-30T14:01:43.567Z,8.07
2019-03-30T14:04:10.140Z,7.93
2019-03-30T14:06:36.605Z,7.57
2019-03-30T14:09:05.295Z,7.83
2019-03-30T14:11:31.871Z,7.60
2019-03-30T14:13:58.121Z,8.40
2019-03-30T14:16:24.555Z,7.97
2019-03-30T14:18:51.199Z,8.13
2019-03-30T14:21:18.053Z,7.77
2019-03-30T14:23:44.469Z,7.60
2019-03-30T14:26:11.113Z,8.23
2019-03-30T14:28:37.732Z,8.33
2019-03-30T14:31:04.391Z,8.37
2019-03-30T14:33:30.814Z,8.67
2019-03-30T14:35:57.643Z,7.10
2019-03-30T14:38:24.167Z,8.30
2019-03-30T14:40:50.650Z,7.67
2019-03-30T14:43:17.155Z,8.30
2019-03-30T14:45:43.779Z,7.63
2019-03-30T14:48:10.424Z,8.47
2019-03-30T14:50:37.174Z,8.20
2019-03-30T14:53:03.774Z,8.37
2019-03-30T14:55:30.305Z,8.53
2019-03-30T14:57:57.006Z,7.83
2019-03-30T15:00:23.765Z,7.20
2019-03-30T15:02:50.624Z,7.60
2019-03-30T15:05:17.198Z,8.20
2019-03-30T15:07:43.841Z,8.83
2019-03-30T15:10:11.090Z,8.83
2019-03-30T15:12:37.855Z,8.70
2019-03-30T15:15:07.046Z,8.10
2019-03-30T15:17:33.589Z,8.43
2019-03-30T15:20:00.187Z,8.73
2019-03-30T15:22:27.058Z,9.30
2019-03-30T15:24:53.508Z,8.53
2019-03-30T15:27:19.911Z,9.43
2019-03-30T15:29:46.365Z,8.63
2019-03-30T15:32:12.918Z,9.50
2019-03-30T15:34:39.453Z,8.67
2019-03-30T15:37:06.059Z,9.30
2019-03-30T15:39:32.650Z,9.00
2019-03-30T15:41:59.287Z,9.30
2019-03-30T15:44:25.853Z,9.67
2019-03-30T15:46:52.519Z,9.87
2019-03-30T15:49:19.237Z,9.57
2019-03-30T15:51:45.765Z,9.30
2019-03-30T15:54:12.339Z,9.60
2019-03-30T15:56:38.907Z,9.13
2019-03-30T15:59:05.544Z,9.30
2019-03-30T16:01:32.197Z,9.37
2019-03-30T16:04:02.284Z,8.87
2019-03-30T16:06:27.695Z,9.40
2019-03-30T16:08:54.378Z,8.80
2019-03-30T16:11:21.009Z,10.50
2019-03-30T16:13:47.616Z,10.73
2019-03-30T16:16:14.149Z,10.70
2019-03-30T16:18:40.650Z,9.73
2019-03-30T16:21:07.314Z,10.40
2019-03-30T16:23:33.865Z,9.90
2019-03-30T16:26:00.455Z,9.00
2019-03-30T16:28:27.175Z,10.03
2019-03-30T16:30:53.812Z,9.90
2019-03-30T16:33:20.300Z,10.13
2019-03-30T16:35:46.950Z,9.40
2019-03-30T16:38:13.551Z,9.37
2019-03-30T16:40:40.206Z,9.37
2019-03-30T16:43:08.438Z,9.47
2019-03-30T16:45:35.161Z,9.70
2019-03-30T16:48:01.578Z,8.77
2019-03-30T16:50:28.081Z,10.70
2019-03-30T16:52:54.624Z,10.87
2019-03-30T16:55:21.034Z,10.60
2019-03-30T16:57:47.715Z,10.70
2019-03-30T17:00:15.335Z,10.37
2019-03-30T17:02:42.110Z,10.70
2019-03-30T17:05:10.611Z,11.07
2019-03-30T17:07:37.158Z,10.83
2019-03-30T17:10:08.170Z,11.50
2019-03-30T17:12:34.854Z,10.73
2019-03-30T17:15:01.825Z,9.57
2019-03-30T17:17:28.305Z,10.47
2019-03-30T17:19:54.827Z,10.63
2019-03-30T17:22:21.346Z,9.83
2019-03-30T17:24:47.756Z,9.43
2019-03-30T17:27:14.292Z,9.87
2019-03-30T17:29:40.845Z,10.00
2019-03-30T17:32:07.496Z,9.47
2019-03-30T17:34:34.138Z,9.20
2019-03-30T17:37:00.938Z,10.13
2019-03-30T17:39:27.797Z,10.13
2019-03-30T17:41:54.473Z,9.20
2019-03-30T17:44:21.029Z,9.63
2019-03-30T17:46:47.654Z,9.93
2019-03-30T17:49:14.271Z,10.20
2019-03-30T17:51:40.707Z,9.63
2019-03-30T17:54:07.184Z,9.30
2019-03-30T17:56:33.632Z,10.43
2019-03-30T17:59:00.233Z,10.17
2019-03-30T18:01:26.835Z,10.20
2019-03-30T18:03:53.688Z,10.40
2019-03-30T18:06:20.371Z,9.57
2019-03-30T18:08:46.899Z,9.77
2019-03-30T18:11:13.431Z,10.13
2019-03-30T18:13:39.999Z,10.67
2019-03-30T18:16:06.671Z,11.43
2019-03-30T18:18:33.375Z,11.43
2019-03-30T18:20:59.906Z,10.80
2019-03-30T18:23:26.425Z,10.27
2019-03-30T18:25:52.752Z,11.90
2019-03-30T18:28:26.990Z,11.70
2019-03-30T18:30:47.830Z,10.77
2019-03-30T18:33:14.465Z,10.07
2019-03-30T18:35:41.037Z,10.33
2019-03-30T18:38:07.865Z,11.50
2019-03-30T18:40:34.479Z,11.50
2019-03-30T18:43:01.902Z,10.90
2019-03-30T18:45:28.888Z,12.07
2019-03-30T18:48:09.117Z,11.80
2019-03-30T18:50:38.755Z,11.57
2019-03-30T18:53:05.965Z,10.73
2019-03-30T18:55:32.694Z,10.37
2019-03-30T18:57:59.139Z,9.93
2019-03-30T19:00:25.954Z,11.00
2019-03-30T19:02:52.691Z,11.47
2019-03-30T19:05:19.536Z,10.60
2019-03-30T19:07:46.172Z,11.20
2019-03-30T19:10:12.940Z,10.67
2019-03-30T19:12:39.451Z,11.10
2019-03-30T19:15:06.539Z,11.40
2019-03-30T19:17:33.186Z,11.50
2019-03-30T19:20:00.368Z,11.47
2019-03-30T19:22:26.903Z,10.90
2019-03-30T19:24:53.525Z,12.03
2019-03-30T19:27:20.345Z,11.60
2019-03-30T19:29:46.981Z,10.87
2019-03-30T19:32:13.807Z,11.77
2019-03-30T19:34:40.446Z,13.03
2019-03-30T19:37:07.336Z,12.10
2019-03-30T19:39:33.967Z,13.77
2019-03-30T19:42:00.641Z,13.60
2019-03-30T19:44:27.119Z,16.23
2019-03-30T19:46:53.602Z,13.80
2019-03-30T19:49:20.217Z,16.33
2019-03-30T19:51:46.754Z,15.73
2019-03-30T19:54:13.471Z,16.37
2019-03-30T19:56:39.946Z,15.97
2019-03-30T19:59:11.098Z,17.13
2019-03-30T20:01:35.126Z,14.17
2019-03-30T20:04:01.879Z,15.17
2019-03-30T20:06:28.585Z,13.43
2019-03-30T20:08:55.110Z,14.00
2019-03-30T20:11:21.920Z,14.70
2019-03-30T20:13:48.602Z,14.63
2019-03-30T20:16:15.085Z,14.83
2019-03-30T20:18:41.892Z,14.60
2019-03-30T20:21:08.384Z,13.87
2019-03-30T20:23:35.063Z,14.60
2019-03-30T20:26:01.566Z,15.50
2019-03-30T20:28:28.265Z,13.80
2019-03-30T20:30:54.736Z,14.47
2019-03-30T20:33:21.388Z,14.17
2019-03-30T20:35:48.025Z,14.67
2019-03-30T20:38:14.712Z,14.57
2019-03-30T20:40:41.394Z,14.30
2019-03-30T20:43:08.181Z,13.90
2019-03-30T20:45:34.871Z,13.97
2019-03-30T20:48:01.534Z,14.07
2019-03-30T20:50:28.195Z,14.00
2019-03-30T20:52:54.826Z,13.33
2019-03-30T20:55:21.306Z,13.73
2019-03-30T20:57:47.838Z,14.27
2019-03-30T21:00:14.828Z,13.03
2019-03-30T21:02:41.575Z,12.67
2019-03-30T21:05:08.930Z,15.67
2019-03-30T21:07:35.690Z,14.13
2019-03-30T21:10:06.794Z,13.97
2019-03-30T21:12:33.521Z,14.37
2019-03-30T21:15:00.360Z,13.90
2019-03-30T21:17:26.956Z,13.70
2019-03-30T21:19:53.627Z,13.87
2019-03-30T21:22:20.265Z,15.23
2019-03-30T21:24:46.877Z,14.50
2019-03-30T21:27:13.501Z,15.37
2019-03-30T21:29:48.508Z,16.23
2019-03-30T21:32:14.961Z,16.17
2019-03-30T21:34:41.506Z,15.50
2019-03-30T21:37:07.887Z,14.60
2019-03-30T21:39:34.306Z,16.10
2019-03-30T21:42:01.036Z,15.83
2019-03-30T21:44:27.689Z,15.80
2019-03-30T21:46:54.332Z,15.90
2019-03-30T21:49:20.974Z,17.10
2019-03-30T21:51:47.763Z,16.37
2019-03-30T21:54:14.500Z,16.57
2019-03-30T21:56:41.047Z,37.20
2019-03-30T21:59:08.027Z,21.07
2019-03-30T22:01:34.698Z,19.50
2019-03-30T22:04:01.413Z,17.67
2019-03-30T22:06:28.046Z,17.37
2019-03-30T22:08:55.064Z,17.30
2019-03-30T22:11:21.753Z,18.93
2019-03-30T22:13:48.358Z,19.07
2019-03-30T22:16:14.821Z,17.50
2019-03-30T22:18:41.493Z,17.43
2019-03-30T22:21:08.365Z,20.10
2019-03-30T22:23:34.996Z,18.20
2019-03-30T22:26:01.624Z,17.43
2019-03-30T22:28:28.156Z,17.07
2019-03-30T22:30:54.656Z,17.27
2019-03-30T22:33:21.462Z,16.60
2019-03-30T22:35:48.127Z,17.27
2019-03-30T22:38:14.690Z,17.13
2019-03-30T22:40:41.686Z,16.90
2019-03-30T22:43:08.550Z,19.67
2019-03-30T22:45:35.250Z,19.50
2019-03-30T22:48:02.027Z,23.27
2019-03-30T22:50:28.628Z,21.57
2019-03-30T22:52:55.353Z,21.07
2019-03-30T22:55:22.001Z,20.97
2019-03-30T22:57:48.594Z,21.20
2019-03-30T23:00:20.716Z,20.33
2019-03-30T23:02:47.656Z,21.13
2019-03-30T23:05:14.270Z,21.17
2019-03-30T23:07:41.070Z,22.90
2019-03-30T23:10:08.013Z,20.70
2019-03-30T23:12:34.519Z,20.03
2019-03-30T23:15:01.178Z,23.57
2019-03-30T23:17:27.561Z,22.77
2019-03-30T23:19:54.089Z,21.93
2019-03-30T23:22:20.684Z,21.77
2019-03-30T23:24:47.301Z,22.47
2019-03-30T23:27:13.816Z,22.47
2019-03-30T23:29:40.321Z,23.80
2019-03-30T23:32:06.994Z,24.03
2019-03-30T23:34:33.566Z,21.80
2019-03-30T23:37:00.208Z,19.73
2019-03-30T23:39:26.734Z,22.27
2019-03-30T23:41:53.294Z,23.20
2019-03-30T23:44:20.047Z,21.63
2019-03-30T23:46:46.533Z,22.53
2019-03-30T23:49:13.173Z,24.50
2019-03-30T23:51:39.763Z,79.83
2019-03-30T23:54:10.257Z,34.83
2019-03-30T23:56:36.599Z,24.87
2019-03-30T23:59:03.365Z,21.90
